^^
Your Local Weather - Clay, NY Station Historical Data
Daily Summary for November 29, 2017 Units:  English    Metric   Both
« Previous Day
Next Day »
Daily Weekly Monthly Yearly Custom
  High: Low: Average:
Temperature: 54.5 °F 26.6 °F 43.9 °F
Dew Point: 40.6 °F 23.0 °F 30.9 °F
Humidity: 86% 41% 61%
Wind Speed: 8.0mph 0.0mph 3.2mph
Wind Gust: 16.0mph - -
Wind- - West
Pressure: 30.32 in 29.89 in -
Precipitation: 0.00 in    
Historical Graphs
 
 
Tabular Data for November 29, 2017
Time Temperature Dew Point Pressure Wind Wind Speed Wind Gust Humidity Rainfall Rate (Hourly) solar
00:06 52.1 °F 32.5 °F 29.92 in South 6.0 mph 11.0 mph 47% 0.00 in 0 W/m2
00:18 52.1 °F 32.5 °F 29.92 in SSW 6.0 mph 6.0 mph 47% 0.00 in 0 W/m2
00:30 52.5 °F 32.3 °F 29.91 in SSW 5.0 mph 5.0 mph 46% 0.00 in 0 W/m2
00:36 52.7 °F 32.5 °F 29.91 in SSW 6.0 mph 7.0 mph 46% 0.00 in 0 W/m2
00:42 53.0 °F 32.2 °F 29.91 in SSE 6.0 mph 6.0 mph 45% 0.00 in 0 W/m2
00:48 53.5 °F 32.1 °F 29.91 in SSW 6.0 mph 10.0 mph 44% 0.00 in 0 W/m2
00:54 53.9 °F 31.9 °F 29.90 in South 7.0 mph 13.0 mph 43% 0.00 in 0 W/m2
01:00 54.0 °F 32.0 °F 29.91 in SW 5.0 mph 5.0 mph 43% 0.00 in 0 W/m2
01:12 54.5 °F 31.3 °F 29.90 in SSW 7.0 mph 16.0 mph 41% 0.00 in 0 W/m2
01:18 54.4 °F 31.8 °F 29.90 in SW 6.0 mph 16.0 mph 42% 0.00 in 0 W/m2
01:24 54.3 °F 31.7 °F 29.90 in South 5.0 mph 6.0 mph 42% 0.00 in 0 W/m2
01:30 54.3 °F 31.7 °F 29.89 in SW 5.0 mph 5.0 mph 42% 0.00 in 0 W/m2
01:36 54.2 °F 31.6 °F 29.90 in WSW 5.0 mph 8.0 mph 42% 0.00 in 0 W/m2
01:42 54.2 °F 31.6 °F 29.90 in SW 5.0 mph 5.0 mph 42% 0.00 in 0 W/m2
01:48 54.1 °F 31.5 °F 29.90 in SW 4.0 mph 12.0 mph 42% 0.00 in 0 W/m2
01:54 54.1 °F 32.1 °F 29.90 in SW 5.0 mph 6.0 mph 43% 0.00 in 0 W/m2
02:08 53.9 °F 31.9 °F 29.90 in SW 4.0 mph 6.0 mph 43% 0.00 in 0 W/m2
02:20 54.0 °F 32.0 °F 29.90 in SW 5.0 mph 5.0 mph 43% 0.00 in 0 W/m2
02:38 53.8 °F 31.8 °F 29.90 in SSW 3.0 mph 8.0 mph 43% 0.00 in 0 W/m2
02:44 53.8 °F 31.8 °F 29.90 in SSW 4.0 mph 6.0 mph 43% 0.00 in 0 W/m2
03:02 53.6 °F 32.2 °F 29.90 in SW 2.0 mph 2.0 mph 44% 0.00 in 0 W/m2
03:08 53.5 °F 32.1 °F 29.90 in WSW 1.0 mph 2.0 mph 44% 0.00 in 0 W/m2
03:14 53.3 °F 31.9 °F 29.90 in WSW 1.0 mph 2.0 mph 44% 0.00 in 0 W/m2
03:20 53.3 °F 32.5 °F 29.90 in WSW 1.0 mph 2.0 mph 45% 0.00 in 0 W/m2
03:26 53.3 °F 31.9 °F 29.90 in WSW 1.0 mph 2.0 mph 44% 0.00 in 0 W/m2
03:38 53.3 °F 32.5 °F 29.90 in WSW 1.0 mph 2.0 mph 45% 0.00 in 0 W/m2
03:44 53.4 °F 32.0 °F 29.90 in WSW 1.0 mph 2.0 mph 44% 0.00 in 0 W/m2
03:50 53.6 °F 32.2 °F 29.90 in WSW 1.0 mph 1.0 mph 44% 0.00 in 0 W/m2
03:56 53.5 °F 32.7 °F 29.90 in WSW 1.0 mph 3.0 mph 45% 0.00 in 0 W/m2
04:02 53.5 °F 32.1 °F 29.90 in West 1.0 mph 3.0 mph 44% 0.00 in 0 W/m2
04:10 53.7 °F 32.3 °F 29.90 in WSW 1.0 mph 2.0 mph 44% 0.00 in 0 W/m2
04:16 53.7 °F 32.3 °F 29.90 in SW 2.0 mph 3.0 mph 44% 0.00 in 0 W/m2
04:34 53.6 °F 33.3 °F 29.91 in WNW 1.0 mph 4.0 mph 46% 0.00 in 0 W/m2
04:40 53.4 °F 33.7 °F 29.92 in WNW 1.0 mph 1.0 mph 47% 0.00 in 0 W/m2
04:46 53.1 °F 33.4 °F 29.92 in WNW 1.0 mph 2.0 mph 47% 0.00 in 0 W/m2
04:52 53.1 °F 33.4 °F 29.92 in WNW 1.0 mph 1.0 mph 47% 0.00 in 0 W/m2
04:58 53.0 °F 34.3 °F 29.92 in WNW 1.0 mph 2.0 mph 49% 0.00 in 0 W/m2
05:04 52.7 °F 36.0 °F 29.93 in West 1.0 mph 7.0 mph 53% 0.00 in 0 W/m2
05:10 52.7 °F 38.3 °F 29.93 in NW 4.0 mph 4.0 mph 58% 0.00 in 0 W/m2
05:16 52.5 °F 39.0 °F 29.93 in WNW 4.0 mph 5.0 mph 60% 0.00 in 0 W/m2
05:22 52.4 °F 39.3 °F 29.93 in WNW 4.0 mph 7.0 mph 61% 0.00 in 0 W/m2
05:28 52.2 °F 40.0 °F 29.93 in WNW 3.0 mph 7.0 mph 63% 0.00 in 0 W/m2
05:34 52.0 °F 40.2 °F 29.93 in NW 3.0 mph 4.0 mph 64% 0.00 in 0 W/m2
05:46 51.5 °F 40.1 °F 29.93 in NW 2.0 mph 4.0 mph 65% 0.00 in 0 W/m2
05:52 51.2 °F 40.6 °F 29.93 in West 3.0 mph 3.0 mph 67% 0.00 in 0 W/m2
06:04 50.8 °F 40.6 °F 29.94 in NW 3.0 mph 4.0 mph 68% 0.00 in 0 W/m2
06:16 50.2 °F 40.0 °F 29.94 in WNW 3.0 mph 4.0 mph 68% 0.00 in 0 W/m2
06:22 49.9 °F 40.1 °F 29.95 in WNW 4.0 mph 4.0 mph 69% 0.00 in 0 W/m2
06:28 49.6 °F 40.2 °F 29.95 in WNW 3.0 mph 5.0 mph 70% 0.00 in 0 W/m2
06:34 49.4 °F 40.4 °F 29.96 in NW 3.0 mph 6.0 mph 71% 0.00 in 0 W/m2
06:40 48.9 °F 40.3 °F 29.96 in WNW 3.0 mph 3.0 mph 72% 0.00 in 0 W/m2
06:46 48.8 °F 40.5 °F 29.96 in WNW 3.0 mph 9.0 mph 73% 0.00 in 0 W/m2
07:04 48.1 °F 40.2 °F 29.98 in WNW 3.0 mph 4.0 mph 74% 0.00 in 0 W/m2
07:10 48.0 °F 40.1 °F 29.98 in WNW 4.0 mph 4.0 mph 74% 0.00 in 0 W/m2
07:16 48.0 °F 39.8 °F 29.98 in WNW 5.0 mph 7.0 mph 73% 0.00 in 5 W/m2
07:22 47.6 °F 38.7 °F 29.99 in NW 4.0 mph 6.0 mph 71% 0.00 in 7 W/m2
07:28 47.3 °F 38.4 °F 29.99 in WNW 3.0 mph 7.0 mph 71% 0.00 in 9 W/m2
07:34 47.2 °F 37.9 °F 29.99 in WNW 4.0 mph 7.0 mph 70% 0.00 in 11 W/m2
07:46 47.2 °F 37.9 °F 30.00 in NW 4.0 mph 6.0 mph 70% 0.00 in 25 W/m2
07:52 47.2 °F 37.9 °F 30.01 in WNW 4.0 mph 4.0 mph 70% 0.00 in 18 W/m2
08:10 47.6 °F 37.9 °F 30.02 in WNW 4.0 mph 6.0 mph 69% 0.00 in 49 W/m2
08:16 47.4 °F 37.0 °F 30.02 in WNW 5.0 mph 7.0 mph 67% 0.00 in 44 W/m2
08:22 47.3 °F 36.1 °F 30.02 in WNW 6.0 mph 8.0 mph 65% 0.00 in 74 W/m2
08:28 47.6 °F 36.4 °F 30.04 in WNW 6.0 mph 10.0 mph 65% 0.00 in 165 W/m2
08:34 47.9 °F 35.9 °F 30.04 in NW 6.0 mph 8.0 mph 63% 0.00 in 176 W/m2
08:40 48.0 °F 35.6 °F 30.04 in WNW 5.0 mph 13.0 mph 62% 0.00 in 113 W/m2
08:58 48.5 °F 36.1 °F 30.05 in NW 5.0 mph 8.0 mph 62% 0.00 in 339 W/m2
09:04 48.5 °F 35.2 °F 30.06 in WNW 6.0 mph 6.0 mph 60% 0.00 in 93 W/m2
09:10 47.7 °F 34.9 °F 30.06 in WNW 7.0 mph 7.0 mph 61% 0.00 in 84 W/m2
09:22 47.8 °F 36.2 °F 30.07 in NW 7.0 mph 7.0 mph 64% 0.00 in 146 W/m2
09:28 47.8 °F 35.8 °F 30.07 in WNW 6.0 mph 7.0 mph 63% 0.00 in 128 W/m2
09:40 46.9 °F 36.1 °F 30.08 in West 6.0 mph 7.0 mph 66% 0.00 in 56 W/m2
09:46 46.5 °F 36.1 °F 30.08 in WNW 7.0 mph 10.0 mph 67% 0.00 in 97 W/m2
09:52 46.4 °F 35.7 °F 30.08 in West 7.0 mph 7.0 mph 66% 0.00 in 160 W/m2
09:58 46.4 °F 35.3 °F 30.09 in West 7.0 mph 7.0 mph 65% 0.00 in 104 W/m2
10:04 46.9 °F 35.0 °F 30.09 in NW 6.0 mph 7.0 mph 63% 0.00 in 155 W/m2
10:10 47.1 °F 34.3 °F 30.10 in West 6.0 mph 6.0 mph 61% 0.00 in 181 W/m2
10:16 47.0 °F 32.5 °F 30.10 in WNW 7.0 mph 9.0 mph 57% 0.00 in 91 W/m2
10:22 46.3 °F 31.9 °F 30.10 in NW 7.0 mph 7.0 mph 57% 0.00 in 70 W/m2
10:28 46.4 °F 32.4 °F 30.11 in West 6.0 mph 7.0 mph 58% 0.00 in 441 W/m2
10:34 46.8 °F 32.4 °F 30.11 in WNW 5.0 mph 8.0 mph 57% 0.00 in 197 W/m2
10:40 47.0 °F 32.5 °F 30.10 in NW 5.0 mph 6.0 mph 57% 0.00 in 148 W/m2
10:46 46.6 °F 31.7 °F 30.11 in West 6.0 mph 7.0 mph 56% 0.00 in 54 W/m2
10:52 45.9 °F 31.1 °F 30.12 in WNW 6.0 mph 6.0 mph 56% 0.00 in 95 W/m2
10:58 45.7 °F 31.8 °F 30.12 in West 6.0 mph 9.0 mph 58% 0.00 in 121 W/m2
11:04 45.9 °F 31.5 °F 30.12 in WNW 7.0 mph 7.0 mph 57% 0.00 in 69 W/m2
11:10 45.5 °F 30.7 °F 30.13 in WNW 7.0 mph 12.0 mph 56% 0.00 in 86 W/m2
11:16 45.5 °F 30.3 °F 30.13 in West 7.0 mph 12.0 mph 55% 0.00 in 102 W/m2
11:22 45.4 °F 30.6 °F 30.13 in WNW 7.0 mph 8.0 mph 56% 0.00 in 109 W/m2
11:28 45.2 °F 30.4 °F 30.13 in WNW 8.0 mph 8.0 mph 56% 0.00 in 53 W/m2
11:34 45.0 °F 30.7 °F 30.14 in NW 8.0 mph 9.0 mph 57% 0.00 in 60 W/m2
11:46 44.6 °F 30.3 °F 30.14 in NW 5.0 mph 12.0 mph 57% 0.00 in 51 W/m2
11:52 44.5 °F 31.1 °F 30.15 in WNW 5.0 mph 8.0 mph 59% 0.00 in 21 W/m2
12:04 44.3 °F 31.7 °F 30.16 in WNW 5.0 mph 5.0 mph 61% 0.00 in 63 W/m2
12:10 44.3 °F 31.7 °F 30.16 in West 6.0 mph 10.0 mph 61% 0.00 in 79 W/m2
12:16 44.3 °F 31.3 °F 30.16 in WNW 7.0 mph 10.0 mph 60% 0.00 in 118 W/m2
12:22 44.4 °F 31.8 °F 30.17 in NNW 5.0 mph 6.0 mph 61% 0.00 in 146 W/m2
12:28 44.4 °F 31.8 °F 30.17 in WNW 5.0 mph 11.0 mph 61% 0.00 in 91 W/m2
12:34 44.2 °F 31.6 °F 30.18 in NW 6.0 mph 7.0 mph 61% 0.00 in 72 W/m2
12:40 44.0 °F 30.2 °F 30.18 in West 6.0 mph 6.0 mph 58% 0.00 in 58 W/m2
12:46 43.7 °F 29.9 °F 30.19 in NW 6.0 mph 6.0 mph 58% 0.00 in 63 W/m2
12:52 43.6 °F 29.4 °F 30.19 in NW 5.0 mph 9.0 mph 57% 0.00 in 111 W/m2
12:58 43.8 °F 30.0 °F 30.19 in NNW 5.0 mph 9.0 mph 58% 0.00 in 111 W/m2
13:04 43.9 °F 27.9 °F 30.19 in NW 5.0 mph 8.0 mph 53% 0.00 in 128 W/m2
13:10 43.8 °F 28.2 °F 30.19 in West 6.0 mph 6.0 mph 54% 0.00 in 118 W/m2
13:16 43.6 °F 28.5 °F 30.19 in WNW 5.0 mph 6.0 mph 55% 0.00 in 58 W/m2
13:28 43.1 °F 28.9 °F 30.20 in NW 6.0 mph 6.0 mph 57% 0.00 in 60 W/m2
13:34 43.4 °F 29.6 °F 30.20 in NNW 5.0 mph 6.0 mph 58% 0.00 in 380 W/m2
13:40 43.7 °F 29.9 °F 30.20 in WNW 4.0 mph 5.0 mph 58% 0.00 in 113 W/m2
13:46 43.5 °F 29.3 °F 30.20 in NNW 4.0 mph 5.0 mph 57% 0.00 in 172 W/m2
13:52 43.6 °F 28.9 °F 30.20 in WNW 5.0 mph 5.0 mph 56% 0.00 in 163 W/m2
13:58 43.5 °F 29.3 °F 30.19 in NNW 5.0 mph 8.0 mph 57% 0.00 in 109 W/m2
14:04 43.7 °F 29.5 °F 30.20 in WNW 5.0 mph 7.0 mph 57% 0.00 in 156 W/m2
14:16 43.9 °F 29.2 °F 30.21 in WNW 5.0 mph 10.0 mph 56% 0.00 in 336 W/m2
14:22 44.3 °F 28.7 °F 30.21 in West 6.0 mph 6.0 mph 54% 0.00 in 179 W/m2
14:28 43.6 °F 28.9 °F 30.21 in WNW 6.0 mph 7.0 mph 56% 0.00 in 283 W/m2
14:40 43.3 °F 28.2 °F 30.21 in NW 4.0 mph 4.0 mph 55% 0.00 in 95 W/m2
14:46 42.9 °F 26.9 °F 30.22 in NW 4.0 mph 7.0 mph 53% 0.00 in 118 W/m2
14:58 42.7 °F 28.5 °F 30.23 in WNW 3.0 mph 6.0 mph 57% 0.00 in 86 W/m2
15:04 42.7 °F 28.1 °F 30.23 in West 4.0 mph 4.0 mph 56% 0.00 in 72 W/m2
15:10 42.6 °F 27.5 °F 30.24 in WNW 4.0 mph 4.0 mph 55% 0.00 in 72 W/m2
15:22 42.3 °F 27.7 °F 30.24 in WNW 5.0 mph 6.0 mph 56% 0.00 in 79 W/m2
15:34 42.2 °F 27.6 °F 30.24 in WNW 4.0 mph 4.0 mph 56% 0.00 in 54 W/m2
15:40 42.1 °F 27.5 °F 30.24 in NW 3.0 mph 5.0 mph 56% 0.00 in 42 W/m2
15:52 41.8 °F 27.7 °F 30.25 in WNW 4.0 mph 8.0 mph 57% 0.00 in 46 W/m2
15:58 41.6 °F 27.5 °F 30.25 in WNW 4.0 mph 8.0 mph 57% 0.00 in 37 W/m2
16:04 41.5 °F 27.4 °F 30.26 in NW 3.0 mph 8.0 mph 57% 0.00 in 28 W/m2
16:10 41.2 °F 27.1 °F 30.26 in NW 4.0 mph 4.0 mph 57% 0.00 in 21 W/m2
16:16 41.1 °F 27.4 °F 30.25 in WNW 3.0 mph 4.0 mph 58% 0.00 in 18 W/m2
16:22 41.0 °F 27.3 °F 30.26 in NW 3.0 mph 3.0 mph 58% 0.00 in 9 W/m2
16:28 41.0 °F 27.3 °F 30.26 in WNW 3.0 mph 4.0 mph 58% 0.00 in 5 W/m2
16:34 40.9 °F 27.2 °F 30.26 in West 2.0 mph 5.0 mph 58% 0.00 in 0 W/m2
16:40 40.9 °F 27.7 °F 30.26 in WNW 2.0 mph 3.0 mph 59% 0.00 in 0 W/m2
16:46 40.8 °F 27.6 °F 30.26 in WNW 2.0 mph 3.0 mph 59% 0.00 in 0 W/m2
16:58 40.7 °F 27.1 °F 30.27 in NW 3.0 mph 6.0 mph 58% 0.00 in 0 W/m2
17:04 40.6 °F 27.4 °F 30.27 in NW 2.0 mph 3.0 mph 59% 0.00 in 0 W/m2
17:10 40.1 °F 27.3 °F 30.27 in NW 1.0 mph 1.0 mph 60% 0.00 in 0 W/m2
17:22 39.5 °F 27.2 °F 30.28 in WNW 2.0 mph 2.0 mph 61% 0.00 in 0 W/m2
17:28 39.2 °F 26.9 °F 30.28 in WNW 1.0 mph 2.0 mph 61% 0.00 in 0 W/m2
17:34 38.9 °F 26.6 °F 30.28 in WNW 1.0 mph 1.0 mph 61% 0.00 in 0 W/m2
17:40 38.6 °F 26.7 °F 30.29 in Calm     62% 0.00 in 0 W/m2
17:46 38.1 °F 26.6 °F 30.29 in Calm     63% 0.00 in 0 W/m2
17:52 37.7 °F 26.6 °F 30.29 in Calm     64% 0.00 in 0 W/m2
17:58 37.5 °F 26.8 °F 30.29 in Calm     65% 0.00 in 0 W/m2
18:04 37.2 °F 26.9 °F 30.29 in Calm     66% 0.00 in 0 W/m2
18:10 36.8 °F 26.5 °F 30.29 in Calm     66% 0.00 in 0 W/m2
18:22 36.0 °F 26.8 °F 30.29 in Calm     69% 0.00 in 0 W/m2
18:28 35.8 °F 26.6 °F 30.30 in Calm   1.0 mph 69% 0.00 in 0 W/m2
18:34 35.7 °F 26.9 °F 30.29 in Calm     70% 0.00 in 0 W/m2
18:40 35.4 °F 26.9 °F 30.30 in Calm     71% 0.00 in 0 W/m2
18:46 35.2 °F 26.7 °F 30.30 in Calm     71% 0.00 in 0 W/m2
18:52 35.0 °F 26.9 °F 30.29 in Calm   1.0 mph 72% 0.00 in 0 W/m2
18:58 34.9 °F 26.8 °F 30.30 in Calm   1.0 mph 72% 0.00 in 0 W/m2
19:04 34.8 °F 27.0 °F 30.30 in Calm     73% 0.00 in 0 W/m2
19:10 34.9 °F 27.5 °F 30.30 in Calm   2.0 mph 74% 0.00 in 0 W/m2
19:16 35.3 °F 27.8 °F 30.31 in Calm   2.0 mph 74% 0.00 in 0 W/m2
19:22 35.5 °F 28.0 °F 30.31 in Calm     74% 0.00 in 0 W/m2
19:28 35.7 °F 28.2 °F 30.31 in Calm   1.0 mph 74% 0.00 in 0 W/m2
19:34 35.8 °F 28.3 °F 30.31 in Calm     74% 0.00 in 0 W/m2
19:52 35.9 °F 29.1 °F 30.32 in Calm     76% 0.00 in 0 W/m2
19:58 35.9 °F 29.1 °F 30.32 in Calm     76% 0.00 in 0 W/m2
20:04 35.9 °F 28.7 °F 30.31 in Calm     75% 0.00 in 0 W/m2
20:10 35.9 °F 28.4 °F 30.32 in Calm     74% 0.00 in 0 W/m2
20:28 35.7 °F 27.9 °F 30.31 in Calm     73% 0.00 in 0 W/m2
20:40 35.4 °F 27.9 °F 30.31 in Calm     74% 0.00 in 0 W/m2
20:46 35.2 °F 27.7 °F 30.31 in Calm     74% 0.00 in 0 W/m2
20:52 35.1 °F 28.0 °F 30.31 in Calm     75% 0.00 in 0 W/m2
21:04 34.4 °F 27.6 °F 30.31 in Calm     76% 0.00 in 0 W/m2
21:10 34.1 °F 28.0 °F 30.31 in Calm     78% 0.00 in 0 W/m2
21:16 33.5 °F 27.4 °F 30.31 in Calm     78% 0.00 in 0 W/m2
21:22 33.2 °F 26.8 °F 30.31 in Calm     77% 0.00 in 0 W/m2
21:28 32.7 °F 26.6 °F 30.31 in Calm     78% 0.00 in 0 W/m2
21:40 31.8 °F 25.7 °F 30.31 in Calm     78% 0.00 in 0 W/m2
21:46 31.3 °F 25.5 °F 30.31 in Calm     79% 0.00 in 0 W/m2
21:52 31.0 °F 25.2 °F 30.30 in Calm     79% 0.00 in 0 W/m2
21:58 30.7 °F 25.3 °F 30.30 in Calm     80% 0.00 in 0 W/m2
22:04 30.4 °F 25.3 °F 30.30 in Calm     81% 0.00 in 0 W/m2
22:18 29.7 °F 24.9 °F 30.30 in Calm     82% 0.00 in 0 W/m2
22:30 29.0 °F 24.2 °F 30.30 in Calm     82% 0.00 in 0 W/m2
22:36 28.7 °F 23.9 °F 30.29 in Calm     82% 0.00 in 0 W/m2
22:48 28.2 °F 23.7 °F 30.29 in Calm     83% 0.00 in 0 W/m2
22:54 28.1 °F 23.9 °F 30.29 in Calm     84% 0.00 in 0 W/m2
23:12 27.9 °F 24.0 °F 30.29 in Calm     85% 0.00 in 0 W/m2
23:18 27.6 °F 23.7 °F 30.29 in Calm     85% 0.00 in 0 W/m2
23:30 27.2 °F 23.6 °F 30.29 in Calm     86% 0.00 in 0 W/m2
23:36 27.0 °F 23.4 °F 30.29 in Calm     86% 0.00 in 0 W/m2
23:42 26.8 °F 23.2 °F 30.29 in Calm     86% 0.00 in 0 W/m2
23:48 26.6 °F 23.0 °F 30.30 in Calm     86% 0.00 in 0 W/m2
23:54 26.6 °F 23.0 °F 30.30 in Calm     86% 0.00 in 0 W/m2
Country Meadow, Clay, NY, USA
Compliments of Weather Underground - 2 mb